createdAt,value
2017-07-29T00:00:56.594Z,99.81
2017-07-29T00:02:07.117Z,99.72
2017-07-29T00:03:17.395Z,99.91
2017-07-29T00:04:27.672Z,99.43
2017-07-29T00:05:37.945Z,99.43
2017-07-29T00:06:47.912Z,99.91
2017-07-29T00:07:58.436Z,99.99
2017-07-29T00:09:08.723Z,99.81
2017-07-29T00:10:18.697Z,99.99
2017-07-29T00:11:28.659Z,99.99
2017-07-29T00:12:38.936Z,99.99
2017-07-29T00:13:49.477Z,99.99
2017-07-29T00:14:59.794Z,99.99
2017-07-29T00:16:09.762Z,99.99
2017-07-29T00:17:20.034Z,99.99
2017-07-29T00:18:30.304Z,99.99
2017-07-29T00:19:40.821Z,99.99
2017-07-29T00:20:51.089Z,99.99
2017-07-29T00:22:01.382Z,99.99
2017-07-29T00:23:11.350Z,99.99
2017-07-29T00:24:21.302Z,99.99
2017-07-29T00:25:31.496Z,99.99
2017-07-29T00:26:41.784Z,99.99
2017-07-29T00:27:51.754Z,99.99
2017-07-29T00:29:02.035Z,99.99
2017-07-29T00:30:11.989Z,99.99
2017-07-29T00:31:22.214Z,99.99
2017-07-29T00:32:32.499Z,99.99
2017-07-29T00:33:42.774Z,99.99
2017-07-29T00:34:52.736Z,99.99
2017-07-29T00:36:03.004Z,99.99
2017-07-29T00:37:13.236Z,99.99
2017-07-29T00:38:23.508Z,99.99
2017-07-29T00:39:33.463Z,99.99
2017-07-29T00:40:43.418Z,99.99
2017-07-29T00:41:53.393Z,99.99
2017-07-29T00:43:03.601Z,99.99
2017-07-29T00:44:13.872Z,99.99
2017-07-29T00:45:24.147Z,99.99
2017-07-29T00:46:34.416Z,99.99
2017-07-29T00:47:44.692Z,99.99
2017-07-29T00:48:54.909Z,99.99
2017-07-29T00:50:05.187Z,99.99
2017-07-29T00:51:15.460Z,99.99
2017-07-29T00:52:25.734Z,99.99
2017-07-29T00:53:36.012Z,99.99
2017-07-29T00:54:46.239Z,99.99
2017-07-29T00:55:56.513Z,99.99
2017-07-29T00:57:06.793Z,99.99
2017-07-29T00:58:16.763Z,99.99
2017-07-29T00:59:27.015Z,99.99
2017-07-29T01:00:37.217Z,99.99
2017-07-29T01:01:47.169Z,99.99
2017-07-29T01:02:57.127Z,99.99
2017-07-29T01:04:07.401Z,99.99
2017-07-29T01:05:17.059Z,99.99
2017-07-29T01:06:27.577Z,99.99
2017-07-29T01:07:37.879Z,99.99
2017-07-29T01:08:47.531Z,99.99
2017-07-29T01:09:57.809Z,99.99
2017-07-29T01:11:08.066Z,99.99
2017-07-29T01:12:18.594Z,99.99
2017-07-29T01:13:28.871Z,99.99
2017-07-29T01:14:39.155Z,99.99
2017-07-29T01:15:48.797Z,99.99
2017-07-29T01:16:58.760Z,99.99
2017-07-29T01:18:09.284Z,99.99
2017-07-29T01:19:18.951Z,99.99
2017-07-29T01:20:29.234Z,99.99
2017-07-29T01:21:39.511Z,99.99
2017-07-29T01:22:49.802Z,99.99
2017-07-29T01:24:00.333Z,99.99
2017-07-29T01:25:10.642Z,99.99
2017-07-29T01:26:20.941Z,99.99
2017-07-29T01:27:31.208Z,99.99
2017-07-29T01:28:41.487Z,99.99
2017-07-29T01:29:52.015Z,99.99
2017-07-29T01:31:01.990Z,99.62
2017-07-29T01:32:11.958Z,99.81
2017-07-29T01:33:21.631Z,99.72
2017-07-29T01:34:31.891Z,99.81
2017-07-29T01:35:42.399Z,99.99
2017-07-29T01:36:52.675Z,99.76
2017-07-29T01:38:02.664Z,99.43
2017-07-29T01:39:12.938Z,99.62
2017-07-29T01:40:23.235Z,99.81
2017-07-29T01:41:33.456Z,99.91
2017-07-29T01:42:43.123Z,99.43
2017-07-29T01:43:53.093Z,99.52
2017-07-29T01:45:03.371Z,99.91
2017-07-29T01:46:13.647Z,99.99
2017-07-29T01:47:24.166Z,99.72
2017-07-29T01:48:34.450Z,99.99
2017-07-29T01:49:44.713Z,99.91
2017-07-29T01:50:54.379Z,99.99
2017-07-29T01:52:04.661Z,99.43
2017-07-29T01:53:15.229Z,99.86
2017-07-29T01:54:25.525Z,99.43
2017-07-29T01:55:35.196Z,99.72
2017-07-29T01:56:45.485Z,99.81
2017-07-29T01:57:55.752Z,99.43
2017-07-29T01:59:05.970Z,99.33
2017-07-29T02:00:15.927Z,99.43
2017-07-29T02:01:25.894Z,99.81
2017-07-29T02:02:36.151Z,99.72
2017-07-29T02:03:46.119Z,99.62
2017-07-29T02:04:56.631Z,99.62
2017-07-29T02:06:06.896Z,99.62
2017-07-29T02:07:17.200Z,98.86
2017-07-29T02:08:27.170Z,99.62
2017-07-29T02:09:37.133Z,99.72
2017-07-29T02:10:47.660Z,99.52
2017-07-29T02:11:57.325Z,99.72
2017-07-29T02:13:07.315Z,99.99
2017-07-29T02:14:17.267Z,99.43
2017-07-29T02:15:27.546Z,99.99
2017-07-29T02:16:38.079Z,99.91
2017-07-29T02:17:47.741Z,99.43
2017-07-29T02:18:58.016Z,99.62
2017-07-29T02:20:07.969Z,99.62
2017-07-29T02:21:18.254Z,99.91
2017-07-29T02:22:28.773Z,99.72
2017-07-29T02:23:38.738Z,99.99
2017-07-29T02:24:49.006Z,99.99
2017-07-29T02:25:59.279Z,99.99
2017-07-29T02:27:09.562Z,99.99
2017-07-29T02:28:20.098Z,99.99
2017-07-29T02:29:30.056Z,99.96
2017-07-29T02:30:40.335Z,99.99
2017-07-29T02:31:49.998Z,99.99
2017-07-29T02:33:00.283Z,99.99
2017-07-29T02:34:10.818Z,99.99
2017-07-29T02:35:21.106Z,99.81
2017-07-29T02:36:30.777Z,99.91
2017-07-29T02:37:40.740Z,99.99
2017-07-29T02:38:50.703Z,99.72
2017-07-29T02:40:00.908Z,99.43
2017-07-29T02:41:10.875Z,99.72
2017-07-29T02:42:21.153Z,99.86
2017-07-29T02:43:30.809Z,99.72
2017-07-29T02:44:40.761Z,99.99
2017-07-29T02:45:51.305Z,99.99
2017-07-29T02:47:01.276Z,99.57
2017-07-29T02:48:11.559Z,99.99
2017-07-29T02:49:21.837Z,99.57
2017-07-29T02:50:31.813Z,99.57
2017-07-29T02:51:42.334Z,99.81
2017-07-29T02:52:52.305Z,99.81
2017-07-29T02:54:02.272Z,99.05
2017-07-29T02:55:12.565Z,99.05
2017-07-29T02:56:22.539Z,99.05
2017-07-29T02:57:32.755Z,98.86
2017-07-29T02:58:42.708Z,99.24
2017-07-29T02:59:52.980Z,99.05
2017-07-29T03:01:03.271Z,98.86
2017-07-29T03:02:13.235Z,99.05
2017-07-29T03:03:23.450Z,99.05
2017-07-29T03:04:33.408Z,98.66
2017-07-29T03:05:43.683Z,98.95
2017-07-29T03:06:53.968Z,98.76
2017-07-29T03:08:04.254Z,98.86
2017-07-29T03:09:14.785Z,98.86
2017-07-29T03:10:25.061Z,98.66
2017-07-29T03:11:35.336Z,98.86
2017-07-29T03:12:45.617Z,99.05
2017-07-29T03:13:55.592Z,98.86
2017-07-29T03:15:06.120Z,98.57
2017-07-29T03:16:16.078Z,98.66
2017-07-29T03:17:26.368Z,99.05
2017-07-29T03:18:36.322Z,98.28
2017-07-29T03:19:46.282Z,99.05
2017-07-29T03:20:56.501Z,98.76
2017-07-29T03:22:06.446Z,98.81
2017-07-29T03:23:16.731Z,98.66
2017-07-29T03:24:27.019Z,99.15
2017-07-29T03:25:37.300Z,98.57
2017-07-29T03:26:47.215Z,98.76
2017-07-29T03:27:57.475Z,99.19
2017-07-29T03:29:07.752Z,99.05
2017-07-29T03:30:18.030Z,98.9
2017-07-29T03:31:28.004Z,98.9
2017-07-29T03:32:37.914Z,98.86
2017-07-29T03:33:48.177Z,98.86
2017-07-29T03:34:58.457Z,99.15
2017-07-29T03:36:08.745Z,98.76
2017-07-29T03:37:19.026Z,99.05
2017-07-29T03:38:29.238Z,98.76
2017-07-29T03:39:39.507Z,98.95
2017-07-29T03:40:49.767Z,98.76
2017-07-29T03:42:00.038Z,99.24
2017-07-29T03:43:10.324Z,98.9
2017-07-29T03:44:20.841Z,99.05
2017-07-29T03:45:31.120Z,98.86
2017-07-29T03:46:41.397Z,98.95
2017-07-29T03:47:51.688Z,98.61
2017-07-29T03:49:01.949Z,98.86
2017-07-29T03:50:12.166Z,98.66
2017-07-29T03:51:22.140Z,99.15
2017-07-29T03:52:32.414Z,99.05
2017-07-29T03:53:42.693Z,98.76
2017-07-29T03:54:52.974Z,98.57
2017-07-29T03:56:03.182Z,99.33
2017-07-29T03:57:12.846Z,98.95
2017-07-29T03:58:22.814Z,98.57
2017-07-29T03:59:32.782Z,98.86
2017-07-29T04:00:42.748Z,98.95
2017-07-29T04:01:52.958Z,98.66
2017-07-29T04:03:02.916Z,98.95
2017-07-29T04:04:12.885Z,98.76
2017-07-29T04:05:22.839Z,99.05
2017-07-29T04:06:33.104Z,98.57
2017-07-29T04:07:43.656Z,99.05
2017-07-29T04:08:53.926Z,98.66
2017-07-29T04:10:04.194Z,98.19
2017-07-29T04:11:14.504Z,98.95
2017-07-29T04:12:24.799Z,98.66
2017-07-29T04:13:35.333Z,99.05
2017-07-29T04:14:45.609Z,98.66
2017-07-29T04:15:55.897Z,98.86
2017-07-29T04:17:05.548Z,97.9
2017-07-29T04:18:15.508Z,97.71
2017-07-29T04:19:26.028Z,98
2017-07-29T04:20:36.000Z,97.52
2017-07-29T04:21:45.958Z,98
2017-07-29T04:22:55.631Z,97.33
2017-07-29T04:24:05.926Z,97.13
2017-07-29T04:25:16.445Z,97.33
2017-07-29T04:26:26.116Z,97.9
2017-07-29T04:27:36.402Z,97.61
2017-07-29T04:28:46.666Z,97.13
2017-07-29T04:29:56.943Z,97.42
2017-07-29T04:31:07.458Z,97.9
2017-07-29T04:32:17.758Z,97.71
2017-07-29T04:33:28.029Z,97.9
2017-07-29T04:34:38.299Z,97.8
2017-07-29T04:35:48.261Z,97.56
2017-07-29T04:36:58.790Z,96.99
2017-07-29T04:38:09.084Z,97.56
2017-07-29T04:39:19.062Z,98.09
2017-07-29T04:40:29.328Z,97.09
2017-07-29T04:41:39.592Z,97.18
2017-07-29T04:42:50.119Z,97.18
2017-07-29T04:43:59.778Z,96.51
2017-07-29T04:45:09.729Z,97.38
2017-07-29T04:46:19.707Z,97.42
2017-07-29T04:47:29.991Z,97.38
2017-07-29T04:48:40.516Z,96.51
2017-07-29T04:49:50.205Z,96.13
2017-07-29T04:51:00.176Z,96.7
2017-07-29T04:52:09.843Z,95.36
2017-07-29T04:53:19.807Z,96.32
2017-07-29T04:54:30.339Z,96.51
2017-07-29T04:55:40.610Z,96.7
2017-07-29T04:56:50.895Z,96.51
2017-07-29T04:58:01.184Z,96.51
2017-07-29T04:59:11.487Z,97.18
2017-07-29T05:00:21.714Z,97.28
2017-07-29T05:01:31.993Z,97.18
2017-07-29T05:02:42.267Z,97.66
2017-07-29T05:03:52.533Z,97.18
2017-07-29T05:05:02.191Z,97.28
2017-07-29T05:06:12.722Z,97.56
2017-07-29T05:07:22.684Z,98.05
2017-07-29T05:08:32.953Z,98.24
2017-07-29T05:09:43.242Z,97.56
2017-07-29T05:10:53.196Z,97.95
2017-07-29T05:12:03.770Z,97.09
2017-07-29T05:13:14.055Z,97.75
2017-07-29T05:14:23.724Z,97.85
2017-07-29T05:15:33.053Z,97.38
2017-07-29T05:16:43.330Z,98.05
2017-07-29T05:17:53.846Z,97.56
2017-07-29T05:19:03.811Z,97.75
2017-07-29T05:20:13.763Z,98.05
2017-07-29T05:21:24.039Z,97.85
2017-07-29T05:22:34.330Z,97.75
2017-07-29T05:23:44.532Z,97.28
2017-07-29T05:24:54.803Z,98.05
2017-07-29T05:26:04.765Z,96.7
2017-07-29T05:27:15.042Z,96.8
2017-07-29T05:28:24.700Z,96.99
2017-07-29T05:29:34.598Z,97.28
2017-07-29T05:30:44.866Z,96.66
2017-07-29T05:31:55.127Z,96.75
2017-07-29T05:33:04.799Z,96.75
2017-07-29T05:34:15.092Z,96.84
2017-07-29T05:35:25.636Z,97.09
2017-07-29T05:36:35.913Z,96.75
2017-07-29T05:37:46.194Z,97.23
2017-07-29T05:38:56.478Z,97.52
2017-07-29T05:40:06.767Z,96.56
2017-07-29T05:41:17.301Z,96.84
2017-07-29T05:42:26.984Z,96.66
2017-07-29T05:43:37.254Z,96.37
2017-07-29T05:44:46.584Z,96.37
2017-07-29T05:45:56.853Z,96.56
2017-07-29T05:47:07.372Z,95.7
2017-07-29T05:48:17.042Z,95.7
2017-07-29T05:49:27.319Z,95.51
2017-07-29T05:50:37.276Z,95.7
2017-07-29T05:51:47.549Z,95.79
2017-07-29T05:52:58.084Z,95.6
2017-07-29T05:54:07.415Z,96.03
2017-07-29T05:55:17.399Z,95.56
2017-07-29T05:56:27.680Z,95.17
2017-07-29T05:57:37.649Z,95.07
2017-07-29T05:58:48.173Z,95.17
2017-07-29T05:59:58.475Z,94.89
2017-07-29T06:01:08.767Z,94.79
2017-07-29T06:02:19.052Z,93.93
2017-07-29T06:03:29.017Z,94.59
2017-07-29T06:04:39.235Z,94.31
2017-07-29T06:05:49.206Z,94.31
2017-07-29T06:06:59.486Z,94.12
2017-07-29T06:08:09.767Z,93.26
2017-07-29T06:09:20.290Z,94.21
2017-07-29T06:10:30.815Z,93.73
2017-07-29T06:11:40.779Z,93.44
2017-07-29T06:12:51.055Z,93.73
2017-07-29T06:14:01.021Z,93.97
2017-07-29T06:15:11.304Z,94.07
2017-07-29T06:16:21.830Z,93.68
2017-07-29T06:17:32.114Z,93.21
2017-07-29T06:18:42.399Z,94.35
2017-07-29T06:19:52.362Z,94.07
2017-07-29T06:21:02.647Z,93.01
2017-07-29T06:22:17.319Z,93.01
2017-07-29T06:23:27.277Z,93.21
2017-07-29T06:24:37.567Z,93.11
2017-07-29T06:25:47.532Z,92.96
2017-07-29T06:26:57.814Z,93.01
2017-07-29T06:28:08.357Z,93.4
2017-07-29T06:29:18.640Z,93.21
2017-07-29T06:30:28.306Z,93.4
2017-07-29T06:31:38.289Z,93.06
2017-07-29T06:32:48.264Z,92.05
2017-07-29T06:33:58.845Z,92.34
2017-07-29T06:35:09.131Z,93.01
2017-07-29T06:36:19.101Z,92.86
2017-07-29T06:37:29.390Z,93.01
2017-07-29T06:38:39.373Z,93.63
2017-07-29T06:39:49.895Z,93.63
2017-07-29T06:41:00.177Z,92.86
2017-07-29T06:42:10.140Z,92.96
2017-07-29T06:43:20.438Z,92.68
2017-07-29T06:44:30.729Z,92.48
2017-07-29T06:45:40.639Z,92.05
2017-07-29T06:46:50.325Z,92
2017-07-29T06:48:00.610Z,90.9
2017-07-29T06:49:10.882Z,91.47
2017-07-29T06:50:20.524Z,90.9
2017-07-29T06:51:31.060Z,91.05
2017-07-29T06:52:40.726Z,91.42
2017-07-29T06:53:51.000Z,92.1
2017-07-29T06:55:01.287Z,92
2017-07-29T06:56:11.255Z,91.14
2017-07-29T06:57:21.776Z,90.9
2017-07-29T06:58:31.436Z,90.7
2017-07-29T06:59:41.406Z,90.7
2017-07-29T07:00:51.688Z,90.8
2017-07-29T07:02:01.976Z,90.32
2017-07-29T07:03:12.224Z,90.22
2017-07-29T07:04:22.499Z,89.55
2017-07-29T07:05:32.465Z,89.84
2017-07-29T07:06:42.446Z,90.22
2017-07-29T07:07:52.428Z,90.9
2017-07-29T07:09:02.641Z,90.22
2017-07-29T07:10:12.911Z,90.13
2017-07-29T07:11:23.182Z,90.8
2017-07-29T07:12:33.466Z,89.75
2017-07-29T07:13:43.735Z,89.84
2017-07-29T07:14:53.958Z,89.36
2017-07-29T07:16:04.239Z,89.17
2017-07-29T07:17:14.218Z,89.17
2017-07-29T07:18:24.480Z,89.07
2017-07-29T07:19:34.785Z,89.55
2017-07-29T07:20:45.322Z,89.65
2017-07-29T07:21:55.315Z,89.65
2017-07-29T07:23:05.599Z,89.55
2017-07-29T07:24:15.259Z,89.75
2017-07-29T07:25:25.539Z,88.98
2017-07-29T07:26:35.788Z,89.02
2017-07-29T07:27:45.759Z,89.36
2017-07-29T07:28:56.043Z,89.12
2017-07-29T07:30:06.316Z,89.6
2017-07-29T07:31:16.590Z,89.12
2017-07-29T07:32:26.805Z,88.25
2017-07-29T07:33:37.069Z,88.73
2017-07-29T07:34:47.372Z,89.12
2017-07-29T07:35:57.672Z,88.93
2017-07-29T07:37:07.637Z,88.25
2017-07-29T07:38:18.168Z,88.35
2017-07-29T07:39:28.458Z,89.22
2017-07-29T07:40:38.738Z,89.12
2017-07-29T07:41:48.713Z,88.64
2017-07-29T07:42:58.988Z,88.73
2017-07-29T07:44:09.202Z,88.54
2017-07-29T07:45:19.490Z,89.02
2017-07-29T07:46:29.783Z,89.12
2017-07-29T07:47:39.767Z,88.83
2017-07-29T07:48:50.040Z,89.02
2017-07-29T07:49:59.941Z,88.25
2017-07-29T07:51:10.230Z,88.45
2017-07-29T07:52:20.502Z,88.68
2017-07-29T07:53:30.475Z,89.07
2017-07-29T07:54:40.764Z,88.78
2017-07-29T07:55:50.994Z,88.49
2017-07-29T07:57:01.268Z,88.87
2017-07-29T07:58:11.553Z,88.68
2017-07-29T07:59:21.211Z,88.3
2017-07-29T08:00:31.507Z,88.59
2017-07-29T08:01:42.087Z,88.39
2017-07-29T08:02:52.360Z,88.1
2017-07-29T08:04:02.652Z,88.01
2017-07-29T08:05:12.923Z,88.01
2017-07-29T08:06:23.218Z,88.3
2017-07-29T08:07:33.741Z,88.39
2017-07-29T08:08:43.701Z,88.3
2017-07-29T08:09:53.656Z,88.3
2017-07-29T08:11:03.917Z,88.2
2017-07-29T08:12:14.194Z,87.15
2017-07-29T08:13:24.411Z,86.85
2017-07-29T08:14:34.384Z,87.19
2017-07-29T08:15:44.658Z,87.09
2017-07-29T08:16:54.618Z,86.13
2017-07-29T08:18:04.914Z,85.84
2017-07-29T08:19:15.126Z,85.84
2017-07-29T08:20:25.098Z,86.13
2017-07-29T08:21:35.062Z,85.6
2017-07-29T08:22:45.356Z,85.31
2017-07-29T08:23:55.678Z,84.19
2017-07-29T08:25:06.212Z,83.91
2017-07-29T08:26:16.184Z,82.65
2017-07-29T08:27:26.494Z,83.81
2017-07-29T08:28:36.791Z,82.56
2017-07-29T08:29:47.067Z,82.46
2017-07-29T08:30:57.600Z,81.6
2017-07-29T08:32:07.603Z,81.3
2017-07-29T08:33:17.872Z,81.35
2017-07-29T08:34:28.168Z,80.68
2017-07-29T08:35:37.839Z,81.63
2017-07-29T08:36:48.410Z,81.45
2017-07-29T08:37:58.699Z,80.29
2017-07-29T08:39:08.977Z,80.38
2017-07-29T08:40:18.990Z,79.71
2017-07-29T08:41:29.281Z,79.27
2017-07-29T08:42:39.799Z,79.36
2017-07-29T08:43:49.745Z,79.66
2017-07-29T08:45:00.040Z,77.15
2017-07-29T08:46:10.025Z,76.28
2017-07-29T08:47:20.306Z,75.65
2017-07-29T08:48:30.229Z,75.55
2017-07-29T08:49:40.504Z,74.52
2017-07-29T08:50:50.477Z,75.01
2017-07-29T08:52:00.460Z,73.37
2017-07-29T08:53:10.748Z,73.18
2017-07-29T08:54:20.969Z,72.5
2017-07-29T08:55:31.248Z,73.18
2017-07-29T08:56:40.910Z,71.48
2017-07-29T08:57:51.189Z,71.09
2017-07-29T08:59:01.159Z,71.67
2017-07-29T09:00:11.383Z,71.51
2017-07-29T09:01:21.364Z,71.03
2017-07-29T09:02:31.656Z,67.27
2017-07-29T09:03:41.639Z,68.52
2017-07-29T09:04:51.633Z,67.27
2017-07-29T09:06:02.170Z,66.63
2017-07-29T09:07:12.461Z,67.11
2017-07-29T09:08:22.441Z,66.08
2017-07-29T09:09:32.406Z,66.82
2017-07-29T09:10:42.698Z,66.63
2017-07-29T09:11:52.944Z,67.11
2017-07-29T09:13:03.227Z,67.2
2017-07-29T09:14:13.209Z,67.49
2017-07-29T09:15:23.200Z,67.11
2017-07-29T09:16:32.866Z,67.69
2017-07-29T09:17:43.401Z,67.78
2017-07-29T09:18:53.672Z,67.2
2017-07-29T09:20:03.947Z,67.69
2017-07-29T09:21:13.919Z,67.4
2017-07-29T09:22:24.236Z,67.11
2017-07-29T09:23:34.773Z,67.62
2017-07-29T09:24:44.726Z,65.78
2017-07-29T09:25:55.007Z,66.11
2017-07-29T09:27:05.010Z,66.4
2017-07-29T09:28:14.985Z,65.72
2017-07-29T09:29:25.537Z,65.05
2017-07-29T09:30:35.216Z,65.01
2017-07-29T09:31:45.517Z,64.85
2017-07-29T09:32:55.815Z,64.27
2017-07-29T09:34:06.096Z,63.34
2017-07-29T09:35:16.659Z,63.53
2017-07-29T09:36:26.926Z,63.63
2017-07-29T09:37:36.905Z,63.14
2017-07-29T09:38:47.199Z,64.11
2017-07-29T09:39:57.496Z,64.85
2017-07-29T09:41:07.727Z,64.56
2017-07-29T09:42:17.713Z,64.76
2017-07-29T09:43:27.377Z,65.5
2017-07-29T09:44:37.686Z,65.34
2017-07-29T09:45:47.976Z,64.47
2017-07-29T09:46:58.208Z,63.63
2017-07-29T09:48:08.504Z,63.92
2017-07-29T09:49:18.508Z,63.08
2017-07-29T09:50:28.802Z,63.27
2017-07-29T09:51:38.790Z,62.01
2017-07-29T09:52:49.393Z,62.5
2017-07-29T09:53:59.676Z,60.17
2017-07-29T09:55:10.019Z,60.75
2017-07-29T09:56:20.324Z,60.37
2017-07-29T09:57:30.598Z,59.98
2017-07-29T09:58:41.142Z,60.85
2017-07-29T09:59:51.128Z,62.08
2017-07-29T10:01:01.419Z,61.69
2017-07-29T10:02:11.407Z,61.69
2017-07-29T10:03:21.402Z,61.5
2017-07-29T10:04:31.638Z,60.82
2017-07-29T10:05:41.928Z,61.4
2017-07-29T10:06:51.893Z,60.66
2017-07-29T10:08:02.194Z,60.47
2017-07-29T10:09:12.504Z,60.57
2017-07-29T10:10:22.747Z,59.69
2017-07-29T10:11:33.026Z,59.21
2017-07-29T10:12:43.326Z,60.17
2017-07-29T10:13:53.312Z,59.23
2017-07-29T10:15:03.308Z,60.3
2017-07-29T10:16:13.550Z,60.21
2017-07-29T10:17:23.528Z,60.3
2017-07-29T10:18:33.186Z,59.07
2017-07-29T10:19:42.858Z,58.2
2017-07-29T10:20:52.829Z,58.2
2017-07-29T10:22:03.366Z,58.98
2017-07-29T10:23:13.653Z,58.78
2017-07-29T10:24:23.626Z,56.26
2017-07-29T10:25:33.916Z,56.46
2017-07-29T10:26:43.893Z,55
2017-07-29T10:27:54.433Z,55.3
2017-07-29T10:29:04.105Z,54.52
2017-07-29T10:30:14.388Z,54.71
2017-07-29T10:31:24.706Z,54.33
2017-07-29T10:32:35.014Z,54.13
2017-07-29T10:33:45.224Z,53.36
2017-07-29T10:34:55.215Z,53.26
2017-07-29T10:36:05.207Z,53.36
2017-07-29T10:37:15.508Z,54.23
2017-07-29T10:38:25.802Z,53.75
2017-07-29T10:39:36.344Z,54.43
2017-07-29T10:40:46.028Z,54.26
2017-07-29T10:41:56.329Z,53.45
2017-07-29T10:43:06.618Z,53.49
2017-07-29T10:44:16.905Z,53.19
2017-07-29T10:45:27.449Z,53.49
2017-07-29T10:46:37.754Z,52.9
2017-07-29T10:47:48.045Z,53.39
2017-07-29T10:48:58.351Z,53.19
2017-07-29T10:50:08.358Z,53.87
2017-07-29T10:51:18.892Z,53.89
2017-07-29T10:52:28.872Z,52.83
2017-07-29T10:53:39.158Z,53.92
2017-07-29T10:54:49.138Z,53.44
2017-07-29T10:55:59.431Z,53.53
2017-07-29T10:57:09.662Z,51.53
2017-07-29T10:58:19.977Z,53.47
2017-07-29T10:59:30.269Z,53.53
2017-07-29T11:00:40.576Z,53.73
2017-07-29T11:01:50.567Z,54.28
2017-07-29T11:03:00.825Z,54.28
2017-07-29T11:04:11.135Z,54.26
2017-07-29T11:05:21.430Z,54.45
2017-07-29T11:06:31.104Z,54.55
2017-07-29T11:07:41.098Z,54.55
2017-07-29T11:08:51.652Z,54.35
2017-07-29T11:10:01.948Z,53.58
2017-07-29T11:11:12.220Z,54.55
2017-07-29T11:12:22.515Z,54.43
2017-07-29T11:13:32.193Z,54.43
2017-07-29T11:14:42.748Z,54.39
2017-07-29T11:15:52.748Z,54.98
2017-07-29T11:17:03.042Z,55.36
2017-07-29T11:18:13.342Z,55.07
2017-07-29T11:19:23.327Z,56.24
2017-07-29T11:20:33.871Z,56.72
2017-07-29T11:21:44.160Z,55.76
2017-07-29T11:22:54.445Z,55.76
2017-07-29T11:24:04.718Z,56.82
2017-07-29T11:25:15.008Z,56.92
2017-07-29T11:26:25.240Z,57.95
2017-07-29T11:27:35.531Z,58.07
2017-07-29T11:28:45.814Z,58.37
2017-07-29T11:29:55.490Z,58.47
2017-07-29T11:31:05.776Z,59.05
2017-07-29T11:32:16.005Z,58.75
2017-07-29T11:33:25.977Z,58.24
2017-07-29T11:34:36.266Z,59.21
2017-07-29T11:35:46.562Z,58.44
2017-07-29T11:36:56.222Z,58.82
2017-07-29T11:38:06.749Z,59.01
2017-07-29T11:39:16.719Z,59.01
2017-07-29T11:40:26.372Z,58.27
2017-07-29T11:41:36.643Z,58.17
2017-07-29T11:42:46.964Z,58.17
2017-07-29T11:43:57.188Z,58.14
2017-07-29T11:45:06.833Z,57.5
2017-07-29T11:46:16.818Z,57.66
2017-07-29T11:47:27.117Z,57.59
2017-07-29T11:48:37.110Z,57.69
2017-07-29T11:49:47.659Z,57.2
2017-07-29T11:50:57.631Z,57.43
2017-07-29T11:52:07.921Z,56.26
2017-07-29T11:53:18.226Z,56.56
2017-07-29T11:54:28.516Z,57.04
2017-07-29T11:55:39.065Z,56.85
2017-07-29T11:56:49.043Z,57.53
2017-07-29T11:57:59.329Z,56.26
2017-07-29T11:59:09.646Z,55.98
2017-07-29T12:00:19.934Z,57.04
2017-07-29T12:01:30.473Z,56.94
2017-07-29T12:02:40.752Z,56.36
2017-07-29T12:03:51.025Z,55.4
2017-07-29T12:05:01.313Z,55.42
2017-07-29T12:06:11.608Z,55.04
2017-07-29T12:07:22.198Z,54.19
2017-07-29T12:08:32.173Z,54.38
2017-07-29T12:09:42.475Z,53.8
2017-07-29T12:10:52.772Z,54.67
2017-07-29T12:12:02.742Z,54.48
2017-07-29T12:13:12.356Z,54.86
2017-07-29T12:14:22.650Z,55.06
2017-07-29T12:15:32.926Z,55.06
2017-07-29T12:16:43.235Z,55.64
2017-07-29T12:17:53.540Z,55.44
2017-07-29T12:19:04.074Z,55.16
2017-07-29T12:20:14.353Z,56.39
2017-07-29T12:21:24.344Z,56.97
2017-07-29T12:22:34.637Z,57.17
2017-07-29T12:23:44.947Z,55.81
2017-07-29T12:24:55.171Z,56
2017-07-29T12:26:05.461Z,56.97
2017-07-29T12:27:15.750Z,56.46
2017-07-29T12:28:26.046Z,57.62
2017-07-29T12:29:36.010Z,58.37
2017-07-29T12:30:46.245Z,59.43
2017-07-29T12:31:56.221Z,58.85
2017-07-29T12:33:06.213Z,57.98
2017-07-29T12:34:16.199Z,58.78
2017-07-29T12:35:26.490Z,58.2
2017-07-29T12:36:36.417Z,58.01
2017-07-29T12:37:46.710Z,57.71
2017-07-29T12:38:57.006Z,57.65
2017-07-29T12:40:07.303Z,58.04
2017-07-29T12:41:17.310Z,57.17
2017-07-29T12:42:27.523Z,56.97
2017-07-29T12:43:37.818Z,56.03
2017-07-29T12:44:48.144Z,56.03
2017-07-29T12:45:58.123Z,55.54
2017-07-29T12:47:08.419Z,54.41
2017-07-29T12:48:18.887Z,55.11
2017-07-29T12:49:29.198Z,55.11
2017-07-29T12:50:39.509Z,54.46
2017-07-29T12:51:49.491Z,53.59
2017-07-29T12:52:59.809Z,53.69
2017-07-29T12:54:10.044Z,53.42
2017-07-29T12:55:20.355Z,52.47
2017-07-29T12:56:30.660Z,52.09
2017-07-29T12:57:40.643Z,51.72
2017-07-29T12:58:50.945Z,52.11
2017-07-29T13:00:01.170Z,50.85
2017-07-29T13:01:11.474Z,50.16
2017-07-29T13:02:21.771Z,49.78
2017-07-29T13:03:31.755Z,50.36
2017-07-29T13:04:42.043Z,50.46
2017-07-29T13:05:52.592Z,49.97
2017-07-29T13:07:02.893Z,50.46
2017-07-29T13:08:12.868Z,49.78
2017-07-29T13:09:23.141Z,49.87
2017-07-29T13:10:33.130Z,50.16
2017-07-29T13:11:43.361Z,50.14
2017-07-29T13:12:52.720Z,50.89
2017-07-29T13:14:02.712Z,51.31
2017-07-29T13:15:12.686Z,50.7
2017-07-29T13:16:22.984Z,50.04
2017-07-29T13:17:33.541Z,49.73
2017-07-29T13:18:43.536Z,49.85
2017-07-29T13:19:53.511Z,48.75
2017-07-29T13:21:03.483Z,49.07
2017-07-29T13:22:13.446Z,49.95
2017-07-29T13:23:23.990Z,50.12
2017-07-29T13:24:34.273Z,49.95
2017-07-29T13:25:44.556Z,50.21
2017-07-29T13:26:54.843Z,50.02
2017-07-29T13:28:04.818Z,50.31
2017-07-29T13:29:15.075Z,50.41
2017-07-29T13:30:25.069Z,50.99
2017-07-29T13:31:35.036Z,50.8
2017-07-29T13:32:45.334Z,50.89
2017-07-29T13:33:55.660Z,51.38
2017-07-29T13:35:06.204Z,50.31
2017-07-29T13:36:16.206Z,49.63
2017-07-29T13:37:26.503Z,50.53
2017-07-29T13:38:36.473Z,50.12
2017-07-29T13:39:46.463Z,50.24
2017-07-29T13:40:56.689Z,50.41
2017-07-29T13:42:06.682Z,50.02
2017-07-29T13:43:16.664Z,50.7
2017-07-29T13:44:26.661Z,51.67
2017-07-29T13:45:36.636Z,51.87
2017-07-29T13:46:46.874Z,52.42
2017-07-29T13:47:56.534Z,53.3
2017-07-29T13:49:06.520Z,54.44
2017-07-29T13:50:16.509Z,54.72
2017-07-29T13:51:25.881Z,55.02
2017-07-29T13:52:36.118Z,55.69
2017-07-29T13:53:46.398Z,55.87
2017-07-29T13:54:56.393Z,54.7
2017-07-29T13:56:06.676Z,55.08
2017-07-29T13:57:16.686Z,54.99
2017-07-29T13:58:27.240Z,54.8
2017-07-29T13:59:37.532Z,54.99
2017-07-29T14:00:47.505Z,54.5
2017-07-29T14:01:57.797Z,53.63
2017-07-29T14:03:08.100Z,53.66
2017-07-29T14:04:18.723Z,52.42
2017-07-29T14:05:28.391Z,51.99
2017-07-29T14:06:38.357Z,52.28
2017-07-29T14:07:48.335Z,50.26
2017-07-29T14:08:58.617Z,50.43
2017-07-29T14:10:09.166Z,50.36
2017-07-29T14:11:19.454Z,49.58
2017-07-29T14:12:29.448Z,50.34
2017-07-29T14:13:39.441Z,50.34
2017-07-29T14:14:49.742Z,49.1
2017-07-29T14:16:00.287Z,49.02
2017-07-29T14:17:10.286Z,49.1
2017-07-29T14:18:20.276Z,49.97
2017-07-29T14:19:30.578Z,51.01
2017-07-29T14:20:40.896Z,51.48
2017-07-29T14:21:51.468Z,52.45
2017-07-29T14:23:01.764Z,52.06
2017-07-29T14:24:12.083Z,51.38
2017-07-29T14:25:22.071Z,52.15
2017-07-29T14:26:31.739Z,51.67
2017-07-29T14:27:41.971Z,52.15
2017-07-29T14:28:52.263Z,52.25
2017-07-29T14:30:01.935Z,53.1
2017-07-29T14:31:12.215Z,54.11
2017-07-29T14:32:21.861Z,54.41
2017-07-29T14:33:32.087Z,54.8
2017-07-29T14:34:42.380Z,55.16
2017-07-29T14:35:52.666Z,54.96
2017-07-29T14:37:02.950Z,55.08
2017-07-29T14:38:13.229Z,54.99
2017-07-29T14:39:23.780Z,54.5
2017-07-29T14:40:33.765Z,54.05
2017-07-29T14:41:43.724Z,53.37
2017-07-29T14:42:54.017Z,52.88
2017-07-29T14:44:04.305Z,52.72
2017-07-29T14:45:14.516Z,52.52
2017-07-29T14:46:24.495Z,52.33
2017-07-29T14:47:34.776Z,52.25
2017-07-29T14:48:45.059Z,52.09
2017-07-29T14:49:55.350Z,51.89
2017-07-29T14:51:05.262Z,51.79
2017-07-29T14:52:15.552Z,52.15
2017-07-29T14:53:25.849Z,53.13
2017-07-29T14:54:36.135Z,53.42
2017-07-29T14:55:46.108Z,53.59
2017-07-29T14:56:56.659Z,53.49
2017-07-29T14:58:06.961Z,53.49
2017-07-29T14:59:16.930Z,53.49
2017-07-29T15:00:26.904Z,54.44
2017-07-29T15:01:37.188Z,54.56
2017-07-29T15:02:47.409Z,53.3
2017-07-29T15:03:57.073Z,51.97
2017-07-29T15:05:07.065Z,51.57
2017-07-29T15:06:17.033Z,51.48
2017-07-29T15:07:27.355Z,51.97